createdAt,value
2023-02-13T00:05:02.733Z,72.72
2023-02-13T00:10:33.997Z,73.09
2023-02-13T00:16:06.084Z,72.79
2023-02-13T00:21:37.218Z,72.84
2023-02-13T00:27:08.624Z,73.20
2023-02-13T00:32:39.753Z,73.16
2023-02-13T00:38:10.842Z,72.77
2023-02-13T00:43:42.019Z,72.78
2023-02-13T00:49:13.226Z,72.99
2023-02-13T00:54:44.337Z,72.31
2023-02-13T01:00:17.650Z,72.06
2023-02-13T01:05:49.568Z,72.17
2023-02-13T01:11:20.886Z,71.95
2023-02-13T01:16:51.823Z,72.15
2023-02-13T01:22:22.957Z,72.26
2023-02-13T01:27:54.096Z,72.22
2023-02-13T01:33:26.371Z,71.97
2023-02-13T01:38:58.713Z,72.41
2023-02-13T01:44:50.262Z,71.99
2023-02-13T01:50:41.559Z,72.25
2023-02-13T01:56:21.116Z,72.53
2023-02-13T02:01:52.844Z,72.42
2023-02-13T02:07:26.847Z,72.28
2023-02-13T02:13:11.949Z,72.50
2023-02-13T02:18:44.080Z,72.34
2023-02-13T02:24:24.653Z,72.63
2023-02-13T02:30:17.457Z,72.48
2023-02-13T02:35:49.107Z,72.65
2023-02-13T02:41:43.122Z,72.83
2023-02-13T02:47:56.757Z,72.91
2023-02-13T02:53:44.585Z,72.49
2023-02-13T02:59:35.697Z,72.30
2023-02-13T03:05:37.005Z,72.42
2023-02-13T03:11:46.848Z,72.68
2023-02-13T03:17:37.338Z,72.01
2023-02-13T03:23:16.035Z,72.05
2023-02-13T03:29:19.095Z,71.74
2023-02-13T03:35:16.386Z,72.07
2023-02-13T03:41:10.214Z,71.81
2023-02-13T03:46:44.630Z,71.85
2023-02-13T03:52:51.326Z,71.94
2023-02-13T03:58:50.249Z,71.82
2023-02-13T04:04:36.448Z,71.62
2023-02-13T04:10:10.586Z,71.85
2023-02-13T04:15:51.480Z,71.93
2023-02-13T04:21:22.487Z,72.25
2023-02-13T04:26:55.071Z,72.25
2023-02-13T04:32:26.102Z,71.87
2023-02-13T04:37:57.231Z,72.04
2023-02-13T04:43:28.416Z,72.08
2023-02-13T04:48:59.532Z,72.05
2023-02-13T04:54:30.889Z,72.17
2023-02-13T05:00:01.936Z,72.45
2023-02-13T05:05:33.488Z,72.35
2023-02-13T05:11:05.098Z,72.42
2023-02-13T05:16:36.415Z,72.53
2023-02-13T05:22:27.810Z,72.01
2023-02-13T05:27:59.175Z,72.22
2023-02-13T05:33:30.761Z,72.06
2023-02-13T05:39:01.880Z,72.27
2023-02-13T05:44:33.729Z,71.96
2023-02-13T05:50:05.411Z,72.09
2023-02-13T05:55:36.813Z,71.69
2023-02-13T06:01:08.130Z,71.77
2023-02-13T06:06:39.359Z,71.36
2023-02-13T06:12:10.365Z,71.44
2023-02-13T06:17:41.500Z,71.44
2023-02-13T06:23:13.236Z,71.63
2023-02-13T06:28:45.054Z,71.56
2023-02-13T06:34:16.468Z,71.64
2023-02-13T06:39:47.709Z,71.70
2023-02-13T06:45:18.886Z,71.81
2023-02-13T06:50:52.348Z,71.54
2023-02-13T06:56:23.340Z,71.81
2023-02-13T07:01:54.498Z,71.87
2023-02-13T07:07:26.282Z,71.94
2023-02-13T07:13:05.795Z,72.05
2023-02-13T07:18:38.691Z,71.87
2023-02-13T07:24:10.164Z,71.75
2023-02-13T07:29:41.137Z,72.01
2023-02-13T07:35:12.467Z,71.77
2023-02-13T07:40:43.650Z,71.93
2023-02-13T07:46:14.812Z,71.97
2023-02-13T07:51:46.312Z,71.67
2023-02-13T07:57:17.702Z,71.83
2023-02-13T08:02:49.012Z,71.79
2023-02-13T08:08:20.059Z,71.80
2023-02-13T08:13:51.454Z,71.44
2023-02-13T08:19:22.422Z,71.51
2023-02-13T08:24:54.453Z,71.68
2023-02-13T08:30:25.379Z,71.95
2023-02-13T08:35:56.724Z,71.69
2023-02-13T08:41:28.705Z,71.96
2023-02-13T08:47:04.184Z,72.01
2023-02-13T08:52:35.863Z,71.98
2023-02-13T08:58:07.247Z,71.93
2023-02-13T09:03:38.484Z,71.81
2023-02-13T09:09:09.992Z,71.94
2023-02-13T09:14:41.200Z,71.72
2023-02-13T09:20:14.199Z,71.65
2023-02-13T09:25:45.236Z,71.63
2023-02-13T09:31:19.590Z,71.44
2023-02-13T09:36:54.456Z,71.49
2023-02-13T09:42:29.165Z,71.42
2023-02-13T09:48:01.050Z,71.29
2023-02-13T09:53:33.819Z,71.42
2023-02-13T09:59:37.884Z,71.61
2023-02-13T10:05:21.024Z,71.30
2023-02-13T10:10:57.956Z,71.38
2023-02-13T10:16:38.792Z,71.23
2023-02-13T10:22:36.370Z,71.30
2023-02-13T10:28:13.155Z,71.48
2023-02-13T10:33:48.740Z,71.50
2023-02-13T10:39:28.968Z,71.22
2023-02-13T10:45:37.147Z,71.21
2023-02-13T10:51:16.564Z,71.94
2023-02-13T10:57:07.057Z,71.16
2023-02-13T11:02:38.932Z,71.33
2023-02-13T11:08:39.608Z,71.40
2023-02-13T11:14:17.991Z,71.54
2023-02-13T11:19:54.370Z,71.24
2023-02-13T11:25:27.315Z,71.18
2023-02-13T11:31:20.920Z,71.34
2023-02-13T11:36:53.703Z,71.38
2023-02-13T11:42:31.102Z,71.08
2023-02-13T11:48:09.963Z,71.10
2023-02-13T11:53:41.606Z,71.45
2023-02-13T11:59:14.117Z,71.47
2023-02-13T12:04:46.460Z,71.09
2023-02-13T12:10:30.153Z,71.44
2023-02-13T12:16:13.461Z,71.31
2023-02-13T12:21:50.533Z,71.53
2023-02-13T12:27:51.403Z,71.39
2023-02-13T12:33:37.727Z,71.35
2023-02-13T12:39:18.241Z,71.13
2023-02-13T12:45:34.068Z,70.99
2023-02-13T12:51:35.207Z,71.10
2023-02-13T12:57:29.411Z,71.33
2023-02-13T13:03:31.224Z,70.99
2023-02-13T13:09:20.385Z,71.05
2023-02-13T13:15:06.199Z,70.87
2023-02-13T13:20:46.189Z,71.26
2023-02-13T13:26:42.513Z,70.84
2023-02-13T13:32:22.068Z,70.80
2023-02-13T13:38:19.712Z,70.95
2023-02-13T13:43:58.156Z,70.90
2023-02-13T13:49:45.070Z,71.03
2023-02-13T13:55:47.122Z,70.83
2023-02-13T14:01:31.654Z,70.49
2023-02-13T14:07:03.092Z,70.79
2023-02-13T14:12:34.098Z,70.04
2023-02-13T14:18:08.182Z,70.40
2023-02-13T14:23:53.430Z,70.51
2023-02-13T14:29:33.411Z,70.58
2023-02-13T14:35:21.318Z,70.70
2023-02-13T14:40:54.455Z,70.30
2023-02-13T14:46:35.906Z,70.52
2023-02-13T14:52:26.631Z,70.57
2023-02-13T14:58:23.488Z,70.76
2023-02-13T15:04:15.536Z,70.76
2023-02-13T15:10:00.840Z,70.82
2023-02-13T15:15:34.939Z,70.97
2023-02-13T15:21:06.082Z,70.80
2023-02-13T15:26:37.578Z,71.01
2023-02-13T15:32:20.744Z,71.14
2023-02-13T15:37:53.322Z,70.82
2023-02-13T15:43:38.877Z,70.97
2023-02-13T15:49:16.135Z,71.36
2023-02-13T15:54:50.244Z,70.81
2023-02-13T16:00:27.524Z,70.90
2023-02-13T16:05:58.888Z,70.96
2023-02-13T16:11:37.316Z,70.71
2023-02-13T16:17:17.735Z,70.58
2023-02-13T16:23:10.887Z,70.52
2023-02-13T16:28:46.724Z,70.35
2023-02-13T16:34:29.417Z,69.93
2023-02-13T16:40:45.352Z,69.80
2023-02-13T16:46:19.463Z,69.47
2023-02-13T16:51:59.819Z,70.09
2023-02-13T16:57:35.101Z,69.76
2023-02-13T17:03:09.174Z,69.51
2023-02-13T17:08:40.094Z,69.69
2023-02-13T17:14:11.257Z,69.31
2023-02-13T17:19:42.432Z,69.36
2023-02-13T17:25:25.050Z,69.79
2023-02-13T17:30:58.270Z,69.85
2023-02-13T17:36:29.892Z,69.89
2023-02-13T17:42:01.434Z,70.13
2023-02-13T17:47:32.955Z,69.49
2023-02-13T17:53:23.908Z,69.74
2023-02-13T17:58:55.294Z,70.10
2023-02-13T18:04:26.672Z,69.95
2023-02-13T18:09:58.498Z,69.71
2023-02-13T18:15:42.260Z,70.04
2023-02-13T18:21:14.013Z,69.76
2023-02-13T18:26:45.435Z,69.88
2023-02-13T18:32:16.554Z,69.66
2023-02-13T18:37:48.368Z,70.22
2023-02-13T18:43:19.381Z,69.72
2023-02-13T18:48:50.274Z,69.81
2023-02-13T18:54:21.752Z,69.96
2023-02-13T18:59:52.762Z,69.85
2023-02-13T19:05:23.988Z,69.76
2023-02-13T19:11:00.149Z,69.34
2023-02-13T19:16:34.026Z,69.33
2023-02-13T19:22:05.302Z,69.66
2023-02-13T19:27:38.384Z,69.84
2023-02-13T19:33:09.869Z,69.25
2023-02-13T19:38:43.675Z,69.51
2023-02-13T19:44:15.163Z,69.49
2023-02-13T19:49:48.193Z,69.12
2023-02-13T19:55:22.414Z,69.46
2023-02-13T20:00:53.828Z,68.93
2023-02-13T20:06:33.526Z,68.92
2023-02-13T20:12:05.156Z,69.13
2023-02-13T20:17:38.107Z,68.58
2023-02-13T20:23:09.714Z,68.58
2023-02-13T20:28:42.421Z,68.58
2023-02-13T20:34:13.748Z,68.85
2023-02-13T20:39:45.198Z,68.18
2023-02-13T20:45:17.279Z,68.95
2023-02-13T20:50:58.661Z,69.31
2023-02-13T20:56:30.300Z,69.33
2023-02-13T21:02:01.272Z,68.56
2023-02-13T21:07:32.720Z,68.93
2023-02-13T21:13:04.392Z,68.38
2023-02-13T21:18:37.246Z,68.83
2023-02-13T21:24:11.427Z,68.77
2023-02-13T21:29:42.425Z,69.11
2023-02-13T21:35:13.316Z,69.03
2023-02-13T21:40:44.558Z,68.97
2023-02-13T21:46:19.646Z,69.10
2023-02-13T21:51:50.896Z,69.51
2023-02-13T21:57:22.025Z,69.58
2023-02-13T22:02:52.877Z,69.73
2023-02-13T22:08:24.296Z,69.88
2023-02-13T22:14:04.096Z,69.64
2023-02-13T22:19:35.254Z,69.59
2023-02-13T22:25:06.744Z,69.92
2023-02-13T22:30:38.172Z,69.80
2023-02-13T22:36:09.970Z,69.94
2023-02-13T22:41:44.615Z,69.96
2023-02-13T22:47:15.972Z,69.83
2023-02-13T22:52:47.848Z,70.09
2023-02-13T22:58:19.010Z,69.76
2023-02-13T23:03:50.285Z,69.68
2023-02-13T23:09:21.932Z,69.91
2023-02-13T23:14:54.245Z,69.93
2023-02-13T23:20:26.911Z,70.03
2023-02-13T23:25:57.923Z,70.03
2023-02-13T23:31:29.362Z,69.65
2023-02-13T23:37:00.733Z,70.16
2023-02-13T23:42:31.945Z,69.95
2023-02-13T23:48:02.973Z,69.98
2023-02-13T23:53:37.471Z,70.19
2023-02-13T23:59:08.742Z,69.60
